»·PEaware :: N612C KSAN-KSNA

N612C :: KSAN-KSNA

FLIGHT INFORMATION

Flight Status: Arrived
Operator: Privately registered:
United States
More flights under this callsign
Pilot: Don H. (15606)
Aircraft: BOEING 737-800
(B738)
More flights by this aircraft type
Origin: KSAN San Diego Intl-Lindbergh
United States
Destination: KSNA John Wayne-Orange Co
United States
More flights between these airports :: More routes between these airports
Route: CWARD2 SLI
File this flight plan on PilotEdge
Remarks: TEC route SANP4R
Altitude:
(Current/Filed)
10,000ft
Speed:
(Current/Filed)
280kts
Departed: 10-Jan-20 11:18 AM
Arrived: 10-Jan-20 11:47 AM
Distance/Time
Traveled:
66nm/0:29
Distance/Time
To Go:
Arrived

Flight Plot

Page will automatically refresh every two minutes.

Flight plan parsing failed; only flown route is shown


Map Options




Map Legend


Flown Route
Filed Route
Departure Airport
Arrival Airport
Navaid (VOR, NDB)
Fix

Horizontal Profiles

Position Reports

Time Latitude Longitude Heading Altitude Ground
Speed
10-Jan-20 10:56 32.732557 -117.195479 311 23ft 0kts
10-Jan-20 10:57 32.732557 -117.195479 311 23ft 0kts
10-Jan-20 10:58 32.732557 -117.195479 311 23ft 0kts
10-Jan-20 10:59 32.732557 -117.195479 311 23ft 0kts
10-Jan-20 11:00 32.732557 -117.195479 311 23ft 0kts
10-Jan-20 11:01 32.732557 -117.195479 311 23ft 0kts
10-Jan-20 11:02 32.732557 -117.195479 311 23ft 0kts
10-Jan-20 11:03 32.732557 -117.195479 311 23ft 0kts
10-Jan-20 11:04 32.732557 -117.195479 311 23ft 0kts
10-Jan-20 11:05 32.732557 -117.195479 311 23ft 0kts
10-Jan-20 11:06 32.732557 -117.195479 311 23ft 0kts
10-Jan-20 11:07 32.732510 -117.195412 301 23ft 2kts
10-Jan-20 11:08 32.732212 -117.194874 342 24ft 1kts
10-Jan-20 11:09 32.732080 -117.194909 23 24ft 0kts
10-Jan-20 11:10 32.732080 -117.194909 23 24ft 0kts
10-Jan-20 11:11 32.732081 -117.194909 23 24ft 0kts
10-Jan-20 11:12 32.733046 -117.191879 106 23ft 11kts
10-Jan-20 11:13 32.730309 -117.180480 106 20ft 17kts
10-Jan-20 11:14 32.729486 -117.177030 90 25ft 0kts
10-Jan-20 11:15 32.729486 -117.177030 90 25ft 0kts
10-Jan-20 11:16 32.730269 -117.176203 291 27ft 0kts
10-Jan-20 11:17 32.735444 -117.198064 284 964ft 160kts
10-Jan-20 11:18 32.762295 -117.255830 307 3979ft 249kts
10-Jan-20 11:19 32.805043 -117.327486 307 8389ft 280kts
10-Jan-20 11:20 32.854180 -117.402990 307 9998ft 287kts
10-Jan-20 11:21 32.902818 -117.478526 307 10000ft 288kts
10-Jan-20 11:22 32.948370 -117.549391 307 10000ft 288kts
10-Jan-20 11:23 32.997143 -117.625418 307 10000ft 288kts
10-Jan-20 11:24 33.045724 -117.701298 307 10000ft 288kts
10-Jan-20 11:25 33.101088 -117.767748 319 10000ft 288kts
10-Jan-20 11:26 33.160348 -117.827729 319 10000ft 288kts
10-Jan-20 11:27 33.230812 -117.869441 355 10001ft 288kts
10-Jan-20 11:28 33.308069 -117.854757 11 9998ft 262kts
10-Jan-20 11:29 33.378060 -117.834070 16 10003ft 260kts
10-Jan-20 11:30 33.447284 -117.809353 16 10003ft 259kts
10-Jan-20 11:31 33.513130 -117.785807 16 9525ft 240kts
10-Jan-20 11:32 33.577772 -117.762664 16 7739ft 248kts
10-Jan-20 11:33 33.644310 -117.738813 16 6079ft 242kts
10-Jan-20 11:34 33.702302 -117.718001 16 5999ft 206kts
10-Jan-20 11:35 33.757172 -117.698289 16 6000ft 207kts
10-Jan-20 11:36 33.812448 -117.678411 16 5961ft 204kts
10-Jan-20 11:37 33.869347 -117.657927 16 4940ft 208kts
10-Jan-20 11:38 33.908632 -117.684441 247 4026ft 179kts
10-Jan-20 11:39 33.883120 -117.725521 228 4000ft 149kts
10-Jan-20 11:40 33.852093 -117.758152 205 3715ft 151kts
10-Jan-20 11:41 33.815564 -117.779909 208 3061ft 146kts
10-Jan-20 11:42 33.779815 -117.802786 207 2279ft 142kts
10-Jan-20 11:43 33.744885 -117.824969 207 1491ft 142kts
10-Jan-20 11:44 33.709916 -117.847157 207 727ft 140kts
10-Jan-20 11:45 33.675828 -117.868764 208 67ft 117kts
10-Jan-20 11:46 33.669322 -117.871765 132 67ft 12kts
10-Jan-20 11:47 33.671151 -117.868840 36 67ft 17kts
10-Jan-20 11:48 33.674912 -117.865975 27 67ft 13kts
10-Jan-20 11:49 33.675720 -117.864654 116 67ft 0kts
10-Jan-20 11:50 33.675720 -117.864654 116 67ft 0kts
10-Jan-20 11:51 33.675720 -117.864654 116 67ft 0kts
10-Jan-20 11:52 33.675720 -117.864654 116 67ft 0kts

Navigation Log

Ident Type
Flight plan parsing failed, navigation log unavailable